Time,TemperatureF,DewpointF,PressureIn,WindDirection,WindDirectionDegrees,WindSpeedMPH,WindSpeedGustMPH,Humidity,HourlyPrecipIn,Conditions,Clouds,dailyrainin,SoftwareType,DateUTC
2013-03-07 00:01:00,25.0,20.0,-100.00,West,280,5.0,9.0,80,-99.99,,,-99.99,,2013-03-07 06:01:00,
2013-03-07 00:11:00,25.0,20.0,-100.00,WNW,295,4.0,7.0,80,-99.99,,,-99.99,,2013-03-07 06:11:00,
2013-03-07 00:21:00,25.0,20.0,-100.00,WNW,295,4.0,7.0,80,-99.99,,,-99.99,,2013-03-07 06:21:00,
2013-03-07 00:32:00,25.0,20.0,-100.00,WNW,295,4.0,7.0,80,-99.99,,,-99.99,,2013-03-07 06:32:00,
2013-03-07 00:42:00,25.0,20.0,-100.00,NW,305,6.0,8.0,80,-99.99,,,-99.99,,2013-03-07 06:42:00,
2013-03-07 00:52:00,25.0,20.0,-100.00,NW,305,4.0,8.0,80,-99.99,,,-99.99,,2013-03-07 06:52:00,
2013-03-07 01:01:00,25.0,20.0,-100.00,NW,305,4.0,8.0,80,-99.99,,,-99.99,,2013-03-07 07:01:00,
2013-03-07 01:11:00,25.0,20.0,-100.00,NW,305,4.0,6.0,80,-99.99,,,-99.99,,2013-03-07 07:11:00,
2013-03-07 01:21:00,25.0,20.0,-100.00,West,270,4.0,6.0,81,-99.99,,,-99.99,,2013-03-07 07:21:00,
2013-03-07 01:32:00,25.0,20.0,-100.00,West,270,4.0,6.0,81,-99.99,,,-99.99,,2013-03-07 07:32:00,
2013-03-07 01:42:00,25.0,20.0,-100.00,West,275,3.0,4.0,81,-99.99,,,-99.99,,2013-03-07 07:42:00,
2013-03-07 01:53:00,25.0,20.0,-100.00,WSW,255,3.0,4.0,81,-99.99,,,-99.99,,2013-03-07 07:53:00,
2013-03-07 02:02:00,25.0,20.0,-100.00,WSW,255,3.0,4.0,81,-99.99,,,-99.99,,2013-03-07 08:02:00,
2013-03-07 02:12:00,25.0,20.0,-100.00,NW,305,1.0,2.0,82,-99.99,,,-99.99,,2013-03-07 08:12:00,
2013-03-07 02:22:00,25.0,20.0,-100.00,West,270,2.0,4.0,81,-99.99,,,-99.99,,2013-03-07 08:22:00,
2013-03-07 02:33:00,25.0,20.0,-100.00,West,270,2.0,4.0,81,-99.99,,,-99.99,,2013-03-07 08:33:00,
2013-03-07 02:43:00,25.0,20.0,-100.00,WNW,290,1.0,4.0,81,-99.99,,,-99.99,,2013-03-07 08:43:00,
2013-03-07 02:54:00,25.0,20.0,-100.00,West,270,4.0,4.0,81,-99.99,,,-99.99,,2013-03-07 08:54:00,
2013-03-07 03:03:00,25.0,20.0,-100.00,West,270,4.0,4.0,81,-99.99,,,-99.99,,2013-03-07 09:03:00,
2013-03-07 03:13:00,25.0,20.0,-100.00,WNW,290,2.0,4.0,82,-99.99,,,-99.99,,2013-03-07 09:13:00,
2013-03-07 03:23:00,25.0,20.0,-100.00,West,275,3.0,4.0,82,-99.99,,,-99.99,,2013-03-07 09:23:00,
2013-03-07 03:33:00,25.0,20.0,-100.00,West,275,3.0,4.0,82,-99.99,,,-99.99,,2013-03-07 09:33:00,
2013-03-07 03:42:00,25.0,20.0,-100.00,NNW,335,1.0,2.0,82,-99.99,,,-99.99,,2013-03-07 09:42:00,
2013-03-07 03:53:00,25.0,20.0,-100.00,NW,320,3.0,4.0,82,-99.99,,,-99.99,,2013-03-07 09:53:00,
2013-03-07 04:03:00,25.0,20.0,-100.00,NW,320,3.0,4.0,82,-99.99,,,-99.99,,2013-03-07 10:03:00,
2013-03-07 04:13:00,25.0,20.0,-100.00,NNW,335,1.0,2.0,82,-99.99,,,-99.99,,2013-03-07 10:13:00,
2013-03-07 04:23:00,25.0,20.0,-100.00,North,0,1.0,2.0,82,-99.99,,,-99.99,,2013-03-07 10:23:00,
2013-03-07 04:42:00,25.0,20.0,-100.00,NNW,340,1.0,3.0,82,-99.99,,,-99.99,,2013-03-07 10:42:00,
2013-03-07 04:53:00,25.0,20.0,-100.00,NNE,20,0.0,2.0,83,-99.99,,,-99.99,,2013-03-07 10:53:00,
2013-03-07 05:03:00,25.0,20.0,-100.00,NNE,20,0.0,2.0,83,-99.99,,,-99.99,,2013-03-07 11:03:00,
2013-03-07 05:12:00,25.0,20.0,-100.00,NNW,345,1.0,1.0,83,-99.99,,,-99.99,,2013-03-07 11:12:00,
2013-03-07 05:23:00,25.0,20.0,-100.00,NW,325,0.0,3.0,83,-99.99,,,-99.99,,2013-03-07 11:23:00,
2013-03-07 05:33:00,25.0,20.0,-100.00,NW,325,0.0,3.0,83,-99.99,,,-99.99,,2013-03-07 11:33:00,
2013-03-07 05:43:00,25.0,20.0,-100.00,ENE,60,0.0,1.0,83,-99.99,,,-99.99,,2013-03-07 11:43:00,
2013-03-07 05:54:00,25.0,20.0,-100.00,NNW,330,0.0,1.0,83,-99.99,,,-99.99,,2013-03-07 11:54:00,
2013-03-07 06:03:00,25.0,20.0,-100.00,NNW,330,0.0,1.0,83,-99.99,,,-99.99,,2013-03-07 12:03:00,
2013-03-07 06:12:00,25.0,20.0,-100.00,East,85,0.0,1.0,83,-99.99,,,-99.99,,2013-03-07 12:12:00,
2013-03-07 06:23:00,25.0,20.0,-100.00,ENE,75,0.0,2.0,83,-99.99,,,-99.99,,2013-03-07 12:23:00,
2013-03-07 06:33:00,25.0,20.0,-100.00,ENE,75,0.0,2.0,83,-99.99,,,-99.99,,2013-03-07 12:33:00,
2013-03-07 06:42:00,25.0,20.0,-100.00,North,0,0.0,1.0,83,-99.99,,,-99.99,,2013-03-07 12:42:00,
2013-03-07 06:53:00,25.0,21.0,-100.00,ENE,70,1.0,2.0,84,-99.99,,,-99.99,,2013-03-07 12:53:00,
2013-03-07 07:02:00,25.0,21.0,-100.00,ENE,70,1.0,2.0,84,-99.99,,,-99.99,,2013-03-07 13:02:00,
2013-03-07 07:12:00,25.0,21.0,-100.00,NE,40,1.0,2.0,84,-99.99,,,-99.99,,2013-03-07 13:12:00,
2013-03-07 07:22:00,25.0,21.0,-100.00,NE,50,1.0,4.0,83,-99.99,,,-99.99,,2013-03-07 13:22:00,
2013-03-07 07:32:00,25.0,21.0,-100.00,NE,50,1.0,4.0,83,-99.99,,,-99.99,,2013-03-07 13:32:00,
2013-03-07 07:42:00,25.0,21.0,-100.00,NE,50,1.0,4.0,83,-99.99,,,-99.99,,2013-03-07 13:42:00,
2013-03-07 07:53:00,26.0,21.0,-100.00,NNW,340,2.0,4.0,83,-99.99,,,-99.99,,2013-03-07 13:53:00,
2013-03-07 08:02:00,26.0,21.0,-100.00,NNW,340,2.0,4.0,83,-99.99,,,-99.99,,2013-03-07 14:02:00,
2013-03-07 08:12:00,26.0,21.0,-100.00,North,355,1.0,3.0,82,-99.99,,,-99.99,,2013-03-07 14:12:00,
2013-03-07 08:23:00,27.0,22.0,-100.00,North,10,2.0,3.0,81,-99.99,,,-99.99,,2013-03-07 14:23:00,
2013-03-07 08:33:00,27.0,22.0,-100.00,North,10,2.0,3.0,81,-99.99,,,-99.99,,2013-03-07 14:33:00,
2013-03-07 08:42:00,27.0,22.0,-100.00,North,0,2.0,3.0,80,-99.99,,,-99.99,,2013-03-07 14:42:00,
2013-03-07 08:54:00,28.0,22.0,-100.00,NNE,20,1.0,4.0,78,-99.99,,,-99.99,,2013-03-07 14:54:00,
2013-03-07 09:12:00,28.0,22.0,-100.00,NE,50,0.0,2.0,77,-99.99,,,-99.99,,2013-03-07 15:12:00,
2013-03-07 09:23:00,29.0,23.0,-100.00,SW,215,1.0,2.0,75,-99.99,,,-99.99,,2013-03-07 15:23:00,
2013-03-07 09:32:00,29.0,23.0,-100.00,SW,215,1.0,2.0,75,-99.99,,,-99.99,,2013-03-07 15:32:00,
2013-03-07 09:42:00,30.0,22.0,-100.00,South,170,0.0,1.0,72,-99.99,,,-99.99,,2013-03-07 15:42:00,
2013-03-07 09:53:00,31.0,22.0,-100.00,South,170,0.0,1.0,69,-99.99,,,-99.99,,2013-03-07 15:53:00,
2013-03-07 10:02:00,31.0,22.0,-100.00,South,170,0.0,1.0,69,-99.99,,,-99.99,,2013-03-07 16:02:00,
2013-03-07 10:12:00,32.0,22.0,-100.00,SSE,150,0.0,2.0,68,-99.99,,,-99.99,,2013-03-07 16:12:00,
2013-03-07 10:23:00,31.0,22.0,-100.00,SSE,165,1.0,4.0,67,-99.99,,,-99.99,,2013-03-07 16:23:00,
2013-03-07 10:32:00,31.0,22.0,-100.00,SSE,165,1.0,4.0,67,-99.99,,,-99.99,,2013-03-07 16:32:00,
2013-03-07 10:43:00,33.0,23.0,-100.00,SSE,160,1.0,4.0,65,-99.99,,,-99.99,,2013-03-07 16:43:00,
2013-03-07 10:53:00,34.0,23.0,-100.00,South,170,3.0,4.0,62,-99.99,,,-99.99,,2013-03-07 16:53:00,
2013-03-07 11:02:00,34.0,23.0,-100.00,South,170,3.0,4.0,62,-99.99,,,-99.99,,2013-03-07 17:02:00,
2013-03-07 11:12:00,34.0,22.0,-100.00,SSE,160,8.0,9.0,61,-99.99,,,-99.99,,2013-03-07 17:12:00,
2013-03-07 11:22:00,34.0,22.0,-100.00,South,175,6.0,9.0,60,-99.99,,,-99.99,,2013-03-07 17:22:00,
2013-03-07 11:33:00,34.0,22.0,-100.00,South,175,6.0,9.0,60,-99.99,,,-99.99,,2013-03-07 17:33:00,
2013-03-07 11:43:00,34.0,22.0,-100.00,South,170,7.0,9.0,61,-99.99,,,-99.99,,2013-03-07 17:43:00,
2013-03-07 11:54:00,35.0,22.0,-100.00,SSE,150,4.0,9.0,60,-99.99,,,-99.99,,2013-03-07 17:54:00,
2013-03-07 12:03:00,35.0,22.0,-100.00,SSE,150,4.0,9.0,60,-99.99,,,-99.99,,2013-03-07 18:03:00,
2013-03-07 12:12:00,35.0,22.0,-100.00,SSE,155,7.0,9.0,59,-99.99,,,-99.99,,2013-03-07 18:12:00,
2013-03-07 12:22:00,36.0,22.0,-100.00,SE,145,4.0,6.0,57,-99.99,,,-99.99,,2013-03-07 18:22:00,
2013-03-07 12:32:00,36.0,22.0,-100.00,SE,145,4.0,6.0,57,-99.99,,,-99.99,,2013-03-07 18:32:00,
2013-03-07 12:53:00,37.0,23.0,-100.00,South,175,6.0,9.0,55,-99.99,,,-99.99,,2013-03-07 18:53:00,
2013-03-07 13:03:00,37.0,23.0,-100.00,South,175,6.0,9.0,55,-99.99,,,-99.99,,2013-03-07 19:03:00,
2013-03-07 13:12:00,37.0,22.0,-100.00,South,170,5.0,8.0,54,-99.99,,,-99.99,,2013-03-07 19:12:00,
2013-03-07 13:23:00,37.0,22.0,-100.00,SSE,165,6.0,8.0,54,-99.99,,,-99.99,,2013-03-07 19:23:00,
2013-03-07 13:35:00,37.0,22.0,-100.00,SSE,165,6.0,8.0,54,-99.99,,,-99.99,,2013-03-07 19:35:00,
2013-03-07 13:43:00,37.0,22.0,-100.00,SSE,165,6.0,9.0,54,-99.99,,,-99.99,,2013-03-07 19:43:00,
2013-03-07 13:53:00,37.0,22.0,-100.00,South,170,4.0,8.0,55,-99.99,,,-99.99,,2013-03-07 19:53:00,
2013-03-07 14:02:00,37.0,22.0,-100.00,South,170,4.0,8.0,55,-99.99,,,-99.99,,2013-03-07 20:02:00,
2013-03-07 14:13:00,37.0,22.0,-100.00,South,175,4.0,9.0,54,-99.99,,,-99.99,,2013-03-07 20:13:00,
2013-03-07 14:22:00,38.0,22.0,-100.00,South,175,6.0,7.0,54,-99.99,,,-99.99,,2013-03-07 20:22:00,
2013-03-07 14:33:00,38.0,22.0,-100.00,South,175,6.0,7.0,54,-99.99,,,-99.99,,2013-03-07 20:33:00,
2013-03-07 14:42:00,37.0,22.0,-100.00,South,170,5.0,6.0,54,-99.99,,,-99.99,,2013-03-07 20:42:00,
2013-03-07 14:54:00,37.0,22.0,-100.00,South,170,6.0,7.0,54,-99.99,,,-99.99,,2013-03-07 20:54:00,
2013-03-07 15:02:00,37.0,22.0,-100.00,South,170,6.0,7.0,54,-99.99,,,-99.99,,2013-03-07 21:02:00,
2013-03-07 15:12:00,37.0,23.0,-100.00,South,170,6.0,7.0,55,-99.99,,,-99.99,,2013-03-07 21:12:00,
2013-03-07 15:22:00,38.0,23.0,-100.00,South,170,4.0,8.0,54,-99.99,,,-99.99,,2013-03-07 21:22:00,
2013-03-07 15:32:00,38.0,23.0,-100.00,South,170,4.0,8.0,54,-99.99,,,-99.99,,2013-03-07 21:32:00,
2013-03-07 15:42:00,37.0,22.0,-100.00,South,170,4.0,6.0,54,-99.99,,,-99.99,,2013-03-07 21:42:00,
2013-03-07 15:53:00,38.0,23.0,-100.00,South,175,4.0,6.0,53,-99.99,,,-99.99,,2013-03-07 21:53:00,
2013-03-07 16:02:00,38.0,23.0,-100.00,South,175,4.0,6.0,53,-99.99,,,-99.99,,2013-03-07 22:02:00,
2013-03-07 16:12:00,38.0,23.0,-100.00,SSE,165,4.0,4.0,53,-99.99,,,-99.99,,2013-03-07 22:12:00,
2013-03-07 16:22:00,39.0,23.0,-100.00,SSE,165,5.0,6.0,53,-99.99,,,-99.99,,2013-03-07 22:22:00,
2013-03-07 16:32:00,39.0,23.0,-100.00,SSE,165,5.0,6.0,53,-99.99,,,-99.99,,2013-03-07 22:32:00,
2013-03-07 16:42:00,38.0,23.0,-100.00,SSE,165,4.0,6.0,54,-99.99,,,-99.99,,2013-03-07 22:42:00,
2013-03-07 16:54:00,38.0,23.0,-100.00,SSE,160,5.0,7.0,55,-99.99,,,-99.99,,2013-03-07 22:54:00,
2013-03-07 17:03:00,38.0,23.0,-100.00,SSE,160,5.0,7.0,55,-99.99,,,-99.99,,2013-03-07 23:03:00,
2013-03-07 17:13:00,37.0,23.0,-100.00,SSE,155,5.0,7.0,56,-99.99,,,-99.99,,2013-03-07 23:13:00,
2013-03-07 17:22:00,37.0,23.0,-100.00,SSE,165,5.0,6.0,56,-99.99,,,-99.99,,2013-03-07 23:22:00,
2013-03-07 17:33:00,37.0,23.0,-100.00,SSE,165,5.0,6.0,56,-99.99,,,-99.99,,2013-03-07 23:33:00,
2013-03-07 17:43:00,36.0,23.0,-100.00,South,175,4.0,6.0,58,-99.99,,,-99.99,,2013-03-07 23:43:00,
2013-03-07 17:54:00,35.0,23.0,-100.00,South,175,4.0,6.0,60,-99.99,,,-99.99,,2013-03-07 23:54:00,
2013-03-07 18:04:00,35.0,23.0,-100.00,South,175,4.0,6.0,60,-99.99,,,-99.99,,2013-03-08 00:04:00,
2013-03-07 18:13:00,34.0,23.0,-100.00,South,185,1.0,5.0,62,-99.99,,,-99.99,,2013-03-08 00:13:00,
2013-03-07 18:23:00,33.0,23.0,-100.00,North,0,0.0,1.0,64,-99.99,,,-99.99,,2013-03-08 00:23:00,
2013-03-07 18:34:00,33.0,23.0,-100.00,North,0,0.0,1.0,64,-99.99,,,-99.99,,2013-03-08 00:34:00,
2013-03-07 18:43:00,33.0,22.0,-100.00,East,100,0.0,1.0,66,-99.99,,,-99.99,,2013-03-08 00:43:00,
2013-03-07 18:54:00,32.0,23.0,-100.00,East,95,0.0,1.0,68,-99.99,,,-99.99,,2013-03-08 00:54:00,
2013-03-07 19:02:00,32.0,23.0,-100.00,East,95,0.0,1.0,68,-99.99,,,-99.99,,2013-03-08 01:02:00,
2013-03-07 19:11:00,32.0,23.0,-100.00,ENE,70,0.0,2.0,69,-99.99,,,-99.99,,2013-03-08 01:11:00,
2013-03-07 19:21:00,32.0,23.0,-100.00,East,80,1.0,2.0,69,-99.99,,,-99.99,,2013-03-08 01:21:00,
2013-03-07 19:33:00,32.0,23.0,-100.00,East,80,1.0,2.0,69,-99.99,,,-99.99,,2013-03-08 01:33:00,
2013-03-07 19:42:00,31.0,23.0,-100.00,ESE,110,2.0,4.0,70,-99.99,,,-99.99,,2013-03-08 01:42:00,
2013-03-07 19:52:00,31.0,23.0,-100.00,SE,125,2.0,4.0,71,-99.99,,,-99.99,,2013-03-08 01:52:00,
2013-03-07 20:01:00,31.0,23.0,-100.00,SE,125,2.0,4.0,71,-99.99,,,-99.99,,2013-03-08 02:01:00,
2013-03-07 20:11:00,31.0,23.0,-100.00,SE,135,4.0,6.0,72,-99.99,,,-99.99,,2013-03-08 02:11:00,
2013-03-07 20:22:00,30.0,23.0,-100.00,SE,125,4.0,6.0,73,-99.99,,,-99.99,,2013-03-08 02:22:00,
2013-03-07 20:32:00,30.0,23.0,-100.00,SE,125,4.0,6.0,73,-99.99,,,-99.99,,2013-03-08 02:32:00,
2013-03-07 20:42:00,29.0,22.0,-100.00,ESE,110,4.0,5.0,75,-99.99,,,-99.99,,2013-03-08 02:42:00,
2013-03-07 20:53:00,29.0,23.0,-100.00,ESE,110,4.0,4.0,77,-99.99,,,-99.99,,2013-03-08 02:53:00,
2013-03-07 21:02:00,29.0,23.0,-100.00,ESE,110,4.0,4.0,77,-99.99,,,-99.99,,2013-03-08 03:02:00,
2013-03-07 21:12:00,29.0,23.0,-100.00,ESE,105,4.0,5.0,77,-99.99,,,-99.99,,2013-03-08 03:12:00,
2013-03-07 21:22:00,29.0,23.0,-100.00,ESE,105,4.0,4.0,78,-99.99,,,-99.99,,2013-03-08 03:22:00,
2013-03-07 21:32:00,29.0,23.0,-100.00,ESE,105,4.0,4.0,78,-99.99,,,-99.99,,2013-03-08 03:32:00,
2013-03-07 21:42:00,29.0,23.0,-100.00,East,100,4.0,4.0,79,-99.99,,,-99.99,,2013-03-08 03:42:00,
2013-03-07 21:53:00,28.0,23.0,-100.00,East,95,4.0,4.0,80,-99.99,,,-99.99,,2013-03-08 03:53:00,
2013-03-07 22:01:00,28.0,23.0,-100.00,East,95,4.0,4.0,80,-99.99,,,-99.99,,2013-03-08 04:01:00,
2013-03-07 22:11:00,28.0,23.0,-100.00,East,90,4.0,4.0,81,-99.99,,,-99.99,,2013-03-08 04:11:00,
2013-03-07 22:22:00,28.0,23.0,-100.00,East,90,5.0,5.0,81,-99.99,,,-99.99,,2013-03-08 04:22:00,
2013-03-07 22:32:00,28.0,23.0,-100.00,East,90,5.0,5.0,81,-99.99,,,-99.99,,2013-03-08 04:32:00,
2013-03-07 22:42:00,27.0,23.0,-100.00,East,85,5.0,6.0,82,-99.99,,,-99.99,,2013-03-08 04:42:00,
2013-03-07 22:52:00,27.0,23.0,-100.00,East,95,5.0,6.0,83,-99.99,,,-99.99,,2013-03-08 04:52:00,
2013-03-07 23:02:00,27.0,23.0,-100.00,East,95,5.0,6.0,83,-99.99,,,-99.99,,2013-03-08 05:02:00,
2013-03-07 23:12:00,28.0,23.0,-100.00,ESE,105,4.0,6.0,83,-99.99,,,-99.99,,2013-03-08 05:12:00,
2013-03-07 23:22:00,28.0,24.0,-100.00,East,100,4.0,6.0,83,-99.99,,,-99.99,,2013-03-08 05:22:00,
2013-03-07 23:32:00,28.0,24.0,-100.00,East,100,4.0,6.0,83,-99.99,,,-99.99,,2013-03-08 05:32:00,
2013-03-07 23:42:00,27.0,23.0,-100.00,East,90,4.0,5.0,83,-99.99,,,-99.99,,2013-03-08 05:42:00,
2013-03-07 23:52:00,27.0,23.0,-100.00,East,90,4.0,6.0,83,-99.99,,,-99.99,,2013-03-08 05:52:00,